createdAt,value
2022-11-30T00:00:16.238Z,7.80
2022-11-30T03:33:11.657Z,7.50
2022-11-30T03:35:38.839Z,7.50
2022-11-30T03:38:07.941Z,7.50
2022-11-30T03:40:36.934Z,7.60
2022-11-30T03:43:10.553Z,7.60
2022-11-30T03:45:37.986Z,7.60
2022-11-30T03:48:05.311Z,7.60
2022-11-30T03:50:33.809Z,7.50
2022-11-30T03:53:00.898Z,7.50
2022-11-30T03:55:27.836Z,7.50
2022-11-30T03:57:55.080Z,7.60
2022-11-30T04:00:22.142Z,7.60
2022-11-30T04:02:49.217Z,7.60
2022-11-30T04:05:16.263Z,7.60
2022-11-30T04:07:44.759Z,7.60
2022-11-30T04:10:12.088Z,7.60
2022-11-30T04:12:39.273Z,7.60
2022-11-30T04:15:07.321Z,7.60
2022-11-30T04:17:34.402Z,7.60
2022-11-30T04:20:01.462Z,7.60
2022-11-30T04:22:28.425Z,7.60
2022-11-30T04:24:56.868Z,7.60
2022-11-30T04:27:23.831Z,7.60
2022-11-30T04:29:51.045Z,7.60
2022-11-30T04:32:18.113Z,7.70
2022-11-30T04:34:45.586Z,7.70
2022-11-30T04:37:12.820Z,7.60
2022-11-30T04:39:39.881Z,7.60
2022-11-30T04:42:08.410Z,7.60
2022-11-30T04:44:35.387Z,7.60
2022-11-30T04:47:02.484Z,7.70
2022-11-30T04:49:29.537Z,7.70
2022-11-30T04:51:56.622Z,7.70
2022-11-30T04:54:23.782Z,7.70
2022-11-30T04:56:51.049Z,7.70
2022-11-30T04:59:19.566Z,7.60
2022-11-30T05:01:49.023Z,7.60
2022-11-30T05:04:16.230Z,7.60
2022-11-30T05:06:43.342Z,7.60
2022-11-30T05:09:10.369Z,7.60
2022-11-30T05:11:37.553Z,7.60
2022-11-30T05:14:05.641Z,7.60
2022-11-30T05:16:34.286Z,7.60
2022-11-30T05:19:01.697Z,7.60
2022-11-30T05:21:28.935Z,7.50
2022-11-30T05:23:56.389Z,7.50
2022-11-30T05:26:23.693Z,7.50
2022-11-30T05:28:50.943Z,7.50
2022-11-30T05:31:19.470Z,7.50
2022-11-30T05:33:52.181Z,7.50
2022-11-30T05:36:19.663Z,7.50
2022-11-30T05:38:48.246Z,7.50
2022-11-30T05:41:15.521Z,7.50
2022-11-30T05:43:42.762Z,7.50
2022-11-30T05:46:10.437Z,7.50
2022-11-30T05:48:37.711Z,7.50
2022-11-30T05:51:07.953Z,7.60
2022-11-30T05:53:35.369Z,7.60
2022-11-30T05:56:03.729Z,7.60
2022-11-30T05:58:30.748Z,7.60
2022-11-30T06:00:57.804Z,7.60
2022-11-30T06:03:25.520Z,7.60
2022-11-30T06:05:53.357Z,7.60
2022-11-30T06:08:23.014Z,7.60
2022-11-30T06:10:50.252Z,7.60
2022-11-30T06:13:17.565Z,7.60
2022-11-30T06:15:44.616Z,7.60
2022-11-30T06:18:13.292Z,7.60
2022-11-30T06:20:40.691Z,7.60
2022-11-30T06:23:08.218Z,7.60
2022-11-30T06:25:36.808Z,7.60
2022-11-30T06:28:04.077Z,7.60
2022-11-30T06:30:31.362Z,7.60
2022-11-30T06:32:58.921Z,7.60
2022-11-30T06:35:26.186Z,7.60
2022-11-30T06:37:55.188Z,7.50
2022-11-30T06:40:22.503Z,7.50
2022-11-30T06:42:51.130Z,7.40
2022-11-30T06:45:18.400Z,7.50
2022-11-30T06:47:45.408Z,7.50
2022-11-30T06:50:15.527Z,7.50
2022-11-30T06:52:42.492Z,7.50
2022-11-30T06:55:09.899Z,7.50
2022-11-30T06:57:40.201Z,7.50
2022-11-30T07:00:09.966Z,7.50
2022-11-30T07:02:37.118Z,7.50
2022-11-30T07:05:04.940Z,7.60
2022-11-30T07:07:32.321Z,7.60
2022-11-30T07:09:59.391Z,7.60
2022-11-30T07:12:26.812Z,7.60
2022-11-30T07:14:56.733Z,7.60
2022-11-30T07:17:25.192Z,7.60
2022-11-30T07:19:52.344Z,7.50
2022-11-30T07:22:19.375Z,7.40
2022-11-30T07:25:04.741Z,7.40
2022-11-30T07:27:31.709Z,7.40
2022-11-30T07:29:58.705Z,7.40
2022-11-30T07:32:27.012Z,7.30
2022-11-30T07:34:54.044Z,7.30
2022-11-30T07:37:21.053Z,7.40
2022-11-30T07:39:48.038Z,7.40
2022-11-30T07:42:15.103Z,7.30
2022-11-30T07:44:42.616Z,7.30
2022-11-30T07:47:09.728Z,7.20
2022-11-30T07:49:39.771Z,7.20
2022-11-30T07:52:07.059Z,7.20
2022-11-30T07:54:34.167Z,7.20
2022-11-30T07:57:01.237Z,7.10
2022-11-30T07:59:28.148Z,7.10
2022-11-30T08:01:55.455Z,7.10
2022-11-30T08:04:22.842Z,7.10
2022-11-30T08:06:53.827Z,7.10
2022-11-30T08:09:21.327Z,7.10
2022-11-30T08:11:49.086Z,7.10
2022-11-30T08:14:16.403Z,7.10
2022-11-30T08:16:47.714Z,7.10
2022-11-30T08:19:14.819Z,7.20
2022-11-30T08:21:41.829Z,7.20
2022-11-30T08:24:13.670Z,7.30
2022-11-30T08:26:41.204Z,7.30
2022-11-30T08:29:11.613Z,7.30
2022-11-30T08:31:38.800Z,7.30
2022-11-30T08:34:08.333Z,7.30
2022-11-30T08:36:35.397Z,7.30
2022-11-30T08:39:05.107Z,7.30
2022-11-30T08:41:35.075Z,7.30
2022-11-30T08:44:02.718Z,7.30
2022-11-30T08:52:19.373Z,7.30
2022-11-30T08:54:48.050Z,7.40
2022-11-30T08:57:18.816Z,7.40
2022-11-30T08:59:46.175Z,7.40
2022-11-30T09:02:19.184Z,7.50
2022-11-30T09:04:49.081Z,7.60
2022-11-30T09:07:16.682Z,7.60
2022-11-30T09:09:44.033Z,7.70
2022-11-30T09:12:11.291Z,7.70
2022-11-30T09:14:40.112Z,7.70
2022-11-30T09:17:07.200Z,7.70
2022-11-30T09:19:34.473Z,7.70
2022-11-30T09:22:01.525Z,7.70
2022-11-30T09:24:28.502Z,7.80
2022-11-30T09:26:56.837Z,7.90
2022-11-30T09:29:23.992Z,7.90
2022-11-30T09:31:52.810Z,8.00
2022-11-30T09:34:44.909Z,7.90
2022-11-30T09:37:29.258Z,7.90
2022-11-30T09:40:15.345Z,7.90
2022-11-30T09:43:24.960Z,7.90
2022-11-30T09:46:26.201Z,7.90
2022-11-30T09:49:10.413Z,8.00
2022-11-30T09:52:15.506Z,7.90
2022-11-30T09:54:49.097Z,7.80
2022-11-30T09:57:25.626Z,7.80
2022-11-30T09:59:56.282Z,7.70
2022-11-30T10:02:28.471Z,7.70
2022-11-30T10:05:35.540Z,7.60
2022-11-30T10:08:51.018Z,7.50
2022-11-30T10:45:01.681Z,8.10
2022-11-30T10:47:36.720Z,8.10
2022-11-30T10:50:06.489Z,8.20
2022-11-30T10:52:44.452Z,8.20
2022-11-30T10:55:14.705Z,8.10
2022-11-30T10:57:42.373Z,8.20
2022-11-30T11:00:14.638Z,8.20
2022-11-30T11:02:43.104Z,8.20
2022-11-30T11:05:17.486Z,8.10
2022-11-30T11:07:55.246Z,8.20
2022-11-30T11:10:27.108Z,8.10
2022-11-30T11:12:55.385Z,8.10
2022-11-30T11:15:24.862Z,8.10
2022-11-30T11:17:53.728Z,8.10
2022-11-30T11:20:36.898Z,8.10
2022-11-30T11:23:04.684Z,8.10
2022-11-30T11:25:34.277Z,8.10
2022-11-30T11:28:08.906Z,8.20
2022-11-30T11:30:37.150Z,8.20
2022-11-30T11:33:18.992Z,8.20
2022-11-30T11:35:49.675Z,8.20
2022-11-30T11:38:25.427Z,8.20
2022-11-30T11:40:54.939Z,8.20
2022-11-30T11:43:23.454Z,8.20
2022-11-30T11:45:52.793Z,8.20
2022-11-30T11:48:33.693Z,8.20
2022-11-30T11:51:07.136Z,8.20
2022-11-30T11:53:51.597Z,8.20
2022-11-30T11:56:25.989Z,8.20
2022-11-30T11:58:58.828Z,8.20
2022-11-30T12:01:40.660Z,8.20
2022-11-30T12:04:23.456Z,8.30
2022-11-30T12:06:54.293Z,8.30
2022-11-30T12:09:27.559Z,8.30
2022-11-30T12:11:54.597Z,8.30
2022-11-30T12:14:21.623Z,8.30
2022-11-30T12:17:05.234Z,8.30
2022-11-30T12:19:41.342Z,8.30
2022-11-30T12:22:28.145Z,8.30
2022-11-30T12:25:10.519Z,8.30
2022-11-30T12:27:44.581Z,8.20
2022-11-30T12:30:19.814Z,8.30
2022-11-30T12:33:10.590Z,8.30
2022-11-30T12:35:45.750Z,8.30
2022-11-30T12:38:25.912Z,8.30
2022-11-30T12:41:00.970Z,8.30
2022-11-30T12:43:37.999Z,8.30
2022-11-30T12:46:12.168Z,8.30
2022-11-30T12:48:48.333Z,8.30
2022-11-30T12:51:25.044Z,8.30
2022-11-30T12:54:04.280Z,8.30
2022-11-30T12:56:45.697Z,8.30
2022-11-30T12:59:26.309Z,8.30
2022-11-30T13:02:05.968Z,8.30
2022-11-30T13:04:40.921Z,8.30
2022-11-30T13:07:17.044Z,8.30
2022-11-30T13:09:51.826Z,8.30
2022-11-30T13:12:25.120Z,8.30
2022-11-30T13:14:57.009Z,8.30
2022-11-30T13:17:24.955Z,8.30
2022-11-30T13:19:59.199Z,8.30
2022-11-30T13:22:36.750Z,8.30
2022-11-30T13:25:17.151Z,8.30
2022-11-30T13:27:53.475Z,8.20
2022-11-30T13:30:32.978Z,8.20
2022-11-30T13:33:36.861Z,8.20
2022-11-30T13:36:05.778Z,8.20
2022-11-30T13:38:37.883Z,8.20
2022-11-30T13:41:08.520Z,8.10
2022-11-30T13:43:40.345Z,8.20
2022-11-30T13:46:18.872Z,8.20
2022-11-30T13:48:46.506Z,8.20
2022-11-30T13:51:33.306Z,8.10
2022-11-30T13:54:41.110Z,8.10
2022-11-30T13:57:53.295Z,8.10
2022-11-30T14:00:48.144Z,8.10
2022-11-30T14:03:26.316Z,8.10
2022-11-30T14:05:54.228Z,8.10
2022-11-30T14:08:39.052Z,8.10
2022-11-30T14:11:38.371Z,8.10
2022-11-30T14:14:46.843Z,8.00
2022-11-30T14:17:19.250Z,8.00
2022-11-30T14:19:48.171Z,8.00
2022-11-30T14:22:15.632Z,8.00
2022-11-30T14:24:46.159Z,7.90
2022-11-30T14:27:17.532Z,7.90
2022-11-30T14:29:47.065Z,7.90
2022-11-30T14:32:20.957Z,7.90
2022-11-30T14:34:50.593Z,7.90
2022-11-30T14:37:22.040Z,7.80
2022-11-30T14:39:50.364Z,7.80
2022-11-30T14:42:21.616Z,7.80
2022-11-30T14:44:49.440Z,7.80
2022-11-30T14:47:22.685Z,7.80
2022-11-30T14:49:52.457Z,7.80
2022-11-30T14:52:38.323Z,7.80
2022-11-30T14:55:17.792Z,7.70
2022-11-30T14:57:53.042Z,7.70
2022-11-30T15:00:21.418Z,7.70
2022-11-30T15:02:50.102Z,7.80
2022-11-30T15:05:20.775Z,7.80
2022-11-30T15:07:48.662Z,7.80
2022-11-30T15:10:18.881Z,7.80
2022-11-30T15:12:46.622Z,7.80
2022-11-30T15:15:17.288Z,7.80
2022-11-30T15:17:51.949Z,7.80
2022-11-30T15:20:24.145Z,7.70
2022-11-30T15:22:51.003Z,7.80
2022-11-30T15:25:18.775Z,7.80
2022-11-30T15:27:45.868Z,7.80
2022-11-30T15:30:17.239Z,7.80
2022-11-30T15:32:46.545Z,7.70
2022-11-30T15:35:34.334Z,7.70
2022-11-30T15:38:19.434Z,7.70
2022-11-30T15:40:53.176Z,7.70
2022-11-30T15:43:23.170Z,7.70
2022-11-30T15:45:55.441Z,7.70
2022-11-30T15:48:30.546Z,7.70
2022-11-30T15:50:59.452Z,7.70
2022-11-30T15:53:34.681Z,7.70
2022-11-30T15:56:05.109Z,7.70
2022-11-30T15:58:37.112Z,7.70
2022-11-30T16:01:08.824Z,7.70
2022-11-30T16:03:59.366Z,7.70
2022-11-30T16:06:29.813Z,7.70
2022-11-30T16:08:58.356Z,7.70
2022-11-30T16:11:25.239Z,7.70
2022-11-30T16:13:52.130Z,7.70
2022-11-30T16:16:21.051Z,7.70
2022-11-30T16:18:48.512Z,7.70
2022-11-30T16:21:18.518Z,7.60
2022-11-30T16:23:47.980Z,7.60
2022-11-30T16:26:51.883Z,7.60
2022-11-30T16:29:04.593Z,7.50
2022-11-30T16:31:31.566Z,7.50
2022-11-30T16:33:58.543Z,7.50
2022-11-30T16:36:25.425Z,7.50
2022-11-30T16:38:53.803Z,7.50
2022-11-30T16:41:22.646Z,7.40
2022-11-30T16:43:51.031Z,7.40
2022-11-30T16:46:19.413Z,7.30
2022-11-30T16:48:47.178Z,7.30
2022-11-30T16:51:17.046Z,7.30
2022-11-30T16:53:44.639Z,7.30
2022-11-30T16:56:14.785Z,7.30
2022-11-30T16:58:42.354Z,7.30
2022-11-30T17:01:15.180Z,7.40
2022-11-30T17:03:46.013Z,7.40
2022-11-30T17:06:17.474Z,7.40
2022-11-30T17:08:44.751Z,7.40
2022-11-30T17:11:18.033Z,7.40
2022-11-30T17:13:44.988Z,7.40
2022-11-30T17:16:11.969Z,7.40
2022-11-30T17:18:38.842Z,7.50
2022-11-30T17:21:06.171Z,7.50
2022-11-30T17:23:32.977Z,7.50
2022-11-30T17:25:59.854Z,7.50
2022-11-30T17:28:28.121Z,7.50
2022-11-30T17:30:55.044Z,7.50
2022-11-30T17:33:21.960Z,7.50
2022-11-30T17:35:49.029Z,7.50
2022-11-30T17:38:16.020Z,7.50
2022-11-30T17:40:43.051Z,7.50
2022-11-30T17:43:09.906Z,7.50
2022-11-30T17:45:40.286Z,7.50
2022-11-30T17:48:07.127Z,7.40
2022-11-30T17:50:33.969Z,7.50
2022-11-30T17:53:00.823Z,7.50
2022-11-30T17:55:27.673Z,7.40
2022-11-30T17:57:54.524Z,7.40
2022-11-30T18:00:22.449Z,7.40
2022-11-30T18:02:52.187Z,7.40
2022-11-30T18:05:19.503Z,7.30
2022-11-30T18:07:46.662Z,7.30
2022-11-30T18:10:14.263Z,7.20
2022-11-30T18:12:41.444Z,7.20
2022-11-30T18:15:09.298Z,7.10
2022-11-30T18:17:36.227Z,7.10
2022-11-30T18:20:05.627Z,7.10
2022-11-30T18:22:32.856Z,7.10
2022-11-30T18:24:59.739Z,7.10
2022-11-30T18:27:26.654Z,7.10
2022-11-30T18:29:53.602Z,7.10
2022-11-30T18:32:20.558Z,7.10
2022-11-30T18:34:49.671Z,7.10
2022-11-30T18:37:18.258Z,7.10
2022-11-30T18:39:45.116Z,7.10
2022-11-30T18:42:12.130Z,7.10
2022-11-30T18:44:38.991Z,7.10
2022-11-30T18:47:05.870Z,7.20
2022-11-30T18:49:32.713Z,7.20
2022-11-30T18:51:59.625Z,7.10
2022-11-30T18:54:27.928Z,7.10
2022-11-30T18:56:54.876Z,7.10
2022-11-30T18:59:21.732Z,7.10
2022-11-30T19:01:50.792Z,7.10
2022-11-30T19:04:17.741Z,7.10
2022-11-30T19:06:44.603Z,7.10
2022-11-30T19:09:13.728Z,7.10
2022-11-30T19:11:42.554Z,7.10
2022-11-30T19:14:12.730Z,7.10
2022-11-30T19:16:40.450Z,7.10
2022-11-30T19:19:10.271Z,7.10
2022-11-30T19:21:37.297Z,7.20
2022-11-30T19:24:04.624Z,7.20
2022-11-30T19:26:31.583Z,7.30
2022-11-30T19:28:59.828Z,7.20
2022-11-30T19:31:26.761Z,7.20
2022-11-30T19:33:55.456Z,7.20
2022-11-30T19:36:23.967Z,7.10
2022-11-30T19:38:51.485Z,7.10
2022-11-30T19:41:19.974Z,7.00
2022-11-30T19:43:53.937Z,7.00
2022-11-30T19:46:24.580Z,6.90
2022-11-30T19:48:56.586Z,6.90
2022-11-30T19:51:23.696Z,6.80
2022-11-30T19:53:55.431Z,6.70
2022-11-30T19:56:23.933Z,6.70
2022-11-30T19:58:51.477Z,6.70
2022-11-30T20:01:22.697Z,6.80
2022-11-30T20:03:51.898Z,6.80
2022-11-30T20:06:19.426Z,6.90
2022-11-30T20:08:46.355Z,6.90
2022-11-30T20:11:15.799Z,6.80
2022-11-30T20:13:42.826Z,6.80
2022-11-30T20:16:11.771Z,6.80
2022-11-30T20:18:44.172Z,6.80
2022-11-30T20:21:16.479Z,6.80
2022-11-30T20:23:44.741Z,6.80
2022-11-30T20:26:13.634Z,6.80
2022-11-30T20:28:40.825Z,6.80
2022-11-30T20:31:09.078Z,6.80
2022-11-30T20:33:36.612Z,6.80
2022-11-30T20:36:04.176Z,6.90
2022-11-30T20:38:32.471Z,6.90
2022-11-30T20:40:59.864Z,6.80
2022-11-30T20:43:27.007Z,6.80
2022-11-30T20:45:54.013Z,6.80
2022-11-30T20:48:21.024Z,6.80
2022-11-30T20:51:00.966Z,6.70
2022-11-30T20:53:28.195Z,6.70
2022-11-30T20:55:59.923Z,6.70
2022-11-30T20:58:27.258Z,6.70
2022-11-30T21:00:54.088Z,6.70
2022-11-30T21:03:20.944Z,6.60
2022-11-30T21:05:47.807Z,6.60
2022-11-30T21:08:14.672Z,6.50
2022-11-30T21:10:41.597Z,6.50
2022-11-30T21:13:09.855Z,6.40
2022-11-30T21:15:36.809Z,6.40
2022-11-30T21:18:03.861Z,6.30
2022-11-30T21:20:30.711Z,6.20
2022-11-30T21:22:57.622Z,6.20
2022-11-30T21:25:24.591Z,6.20
2022-11-30T21:27:54.865Z,6.10
2022-11-30T21:30:23.047Z,6.10
2022-11-30T21:32:49.906Z,6.10
2022-11-30T21:35:16.787Z,6.00
2022-11-30T21:37:43.647Z,6.00
2022-11-30T21:40:11.397Z,6.00
2022-11-30T21:42:38.309Z,6.00
2022-11-30T21:45:06.009Z,6.10
2022-11-30T21:47:34.276Z,6.10
2022-11-30T21:50:01.146Z,6.10
2022-11-30T21:52:28.308Z,6.20
2022-11-30T21:54:55.187Z,6.20
2022-11-30T21:57:22.386Z,6.10
2022-11-30T21:59:49.714Z,6.20
2022-11-30T22:02:16.800Z,6.20
2022-11-30T22:04:45.174Z,6.10
2022-11-30T22:07:13.202Z,6.10
2022-11-30T22:09:40.256Z,6.10
2022-11-30T22:12:07.243Z,6.10
2022-11-30T22:14:36.251Z,6.10
2022-11-30T22:17:03.137Z,6.10
2022-11-30T22:19:29.957Z,6.00
2022-11-30T22:21:58.154Z,6.00
2022-11-30T22:24:25.004Z,6.00
2022-11-30T22:26:51.826Z,6.00
2022-11-30T22:29:21.073Z,6.00
2022-11-30T22:31:49.903Z,6.00
2022-11-30T22:34:17.006Z,6.00
2022-11-30T22:36:45.263Z,5.90
2022-11-30T22:39:15.218Z,5.90
2022-11-30T22:41:45.329Z,5.90
2022-11-30T22:44:13.833Z,5.90
2022-11-30T22:46:41.653Z,6.00
2022-11-30T22:49:15.794Z,5.90
2022-11-30T22:51:45.637Z,5.80
2022-11-30T22:54:13.870Z,5.80
2022-11-30T22:56:41.736Z,5.90
2022-11-30T22:59:11.025Z,5.80
2022-11-30T23:01:39.676Z,5.80
2022-11-30T23:04:09.171Z,5.80
2022-11-30T23:06:37.053Z,5.80
2022-11-30T23:09:04.978Z,5.80
2022-11-30T23:11:33.598Z,5.80
2022-11-30T23:14:00.578Z,5.80
2022-11-30T23:16:27.550Z,5.80
2022-11-30T23:18:56.997Z,5.80
2022-11-30T23:21:26.435Z,5.80
2022-11-30T23:23:55.334Z,5.80
2022-11-30T23:26:24.477Z,5.70
2022-11-30T23:28:54.898Z,5.70
2022-11-30T23:31:33.853Z,5.60
2022-11-30T23:34:03.834Z,5.60
2022-11-30T23:36:30.673Z,5.60
2022-11-30T23:38:59.245Z,5.60
2022-11-30T23:41:26.751Z,5.60
2022-11-30T23:43:55.161Z,5.60
2022-11-30T23:46:22.124Z,5.70
2022-11-30T23:48:49.153Z,5.50
2022-11-30T23:51:16.067Z,5.50
2022-11-30T23:53:43.808Z,5.60
2022-11-30T23:56:14.036Z,5.60
2022-11-30T23:58:41.218Z,5.60
